Atlantic - Newfoundland: Past 24 Hour Conditions

 

Nickerson Bank - 44251

12:00 AM AST 23 November 2014Buoy position: 46.45N 53.38W
This table is a summary of hourly weather conditions for the past 24 hours.
Date / Time
(AST)
Wind(knots) Wave height(m) Wave period(s) Pressure(kPa) Air tempC) Water tempC)
23 November 2014
0:00 W 25 gust 31 4.3 12.0 101.1 2 6
22 November 2014
23:00 W 23 gust 31 4.5 10.0 101.1 2 6
22:00 W 25 gust 31 4.4 9.0 101.1 2 6
21:00 W 29 gust 37 4.8 11.0 101.1 1 6
20:00 W 25 gust 29 4.6 11.0 101.1 1 6
19:00 W 19 gust 33 4.4 10.0 101.1 1 6
18:00 W 25 gust 33 4.5 10.0 101.0 1 6
17:00 WNW 27 gust 35 4.9 9.0 101.0 1 6
16:00 WNW 31 gust 39 4.6 10.0 100.9 1 7
15:00 W 29 gust 35 4.3 9.0 100.8 1 7
14:00 N/A N/A N/A N/A N/A N/A
13:00 W 29 gust 35 3.8 10.0 100.8 1 7
12:00 WNW 29 gust 35 3.8 9.0 100.7 0 7
11:00 WNW 29 gust 37 3.8 8.0 100.7 0 6
10:00 WNW 31 gust 39 3.8 9.0 100.7 0 7
9:00 WNW 29 gust 37 3.3 10.0 100.6 0 7
8:00 W 27 gust 31 3.4 8.0 100.6 1 7
7:00 WNW 27 N/A N/A 100.5 1 7
6:00 WNW 27 gust 31 3.3 9.0 100.4 1 7
5:00 WNW 27 gust 35 3.4 9.0 100.3 1 7
4:00 WNW 23 gust 31 3.4 8.0 100.2 2 7
3:00 WNW 23 gust 29 3.5 9.0 100.2 2 7
2:00 WNW 25 gust 31 3.2 9.0 100.1 2 7
1:00 W 23 gust 31 3.6 8.0 100.1 2 7
0:00 W 27 gust 33 3.5 9.0 100.0 2 7
 
Map of Atlantic - Newfoundland marine weather areas Southwestern Grand Banks - 44138 Banquereau - 44139 Tail of the Bank - 44140 Nickerson Bank - 44251 Northeast Burgeo Bank - 44255 Blanc-Sablon Airport Cap Whittle Chevery Natashquan Airport Heath Point Miscou Island Grand Étang Ingonish Beach North Mountain St.Paul Island J.A. Douglas McCurdy Sydney Airport Charlottetown Airport East Point North Cape Argentia Bonavista Burgeo Cape Race Corner Brook Daniel's Harbour Englee Ferolle Point La Scie Port aux Basques Rocky Harbour Sagona Island St. Anthony Airport St. John's Int'l Airport St. Lawrence Stephenville Airport Twillingate Winterland Wreckhouse Cartwright Airport Mary's Harbour Grates Cove Pool's Island Marticot Island Long Pond Îles de la Madeleine Airport
Legend: buoyBuoy land stationLand Station